createdAt,value
2023-04-23T00:02:08.141Z,2.80
2023-04-23T00:04:38.081Z,3.50
2023-04-23T00:07:06.843Z,3.60
2023-04-23T00:09:34.472Z,3.20
2023-04-23T00:12:02.104Z,3.10
2023-04-23T00:14:29.129Z,3.40
2023-04-23T00:16:56.100Z,2.80
2023-04-23T00:19:22.900Z,3.07
2023-04-23T00:21:49.722Z,3.10
2023-04-23T00:24:16.477Z,3.10
2023-04-23T00:26:43.227Z,3.10
2023-04-23T00:29:10.141Z,3.03
2023-04-23T00:31:36.959Z,3.27
2023-04-23T00:34:04.024Z,2.90
2023-04-23T00:36:31.132Z,2.53
2023-04-23T00:38:57.956Z,2.60
2023-04-23T00:41:25.590Z,2.27
2023-04-23T00:43:53.201Z,2.70
2023-04-23T00:46:20.602Z,2.43
2023-04-23T00:48:48.262Z,3.33
2023-04-23T00:51:17.520Z,2.57
2023-04-23T00:53:44.243Z,2.00
2023-04-23T00:56:11.697Z,2.10
2023-04-23T00:58:38.776Z,2.37
2023-04-23T01:01:06.217Z,2.97
2023-04-23T01:03:36.389Z,2.60
2023-04-23T01:06:04.300Z,2.80
2023-04-23T01:08:32.209Z,2.70
2023-04-23T01:10:59.734Z,2.23
2023-04-23T01:13:29.629Z,2.63
2023-04-23T01:15:57.340Z,3.23
2023-04-23T01:18:24.337Z,3.40
2023-04-23T01:20:51.502Z,2.30
2023-04-23T01:23:18.604Z,2.50
2023-04-23T01:25:45.909Z,2.70
2023-04-23T01:28:13.151Z,4.20
2023-04-23T01:30:43.179Z,2.53
2023-04-23T01:33:11.108Z,2.20
2023-04-23T01:35:39.053Z,3.00
2023-04-23T01:38:09.387Z,2.63
2023-04-23T01:40:36.644Z,2.60
2023-04-23T01:43:04.806Z,2.40
2023-04-23T01:45:31.886Z,2.33
2023-04-23T01:48:00.370Z,2.80
2023-04-23T01:50:29.118Z,2.50
2023-04-23T01:52:56.041Z,2.00
2023-04-23T01:55:26.132Z,2.80
2023-04-23T01:57:52.902Z,2.37
2023-04-23T02:00:20.734Z,2.50
2023-04-23T02:02:48.144Z,2.37
2023-04-23T02:05:18.473Z,2.50
2023-04-23T02:07:50.682Z,3.03
2023-04-23T02:10:18.620Z,2.10
2023-04-23T02:12:45.782Z,2.30
2023-04-23T02:15:13.396Z,2.93
2023-04-23T02:17:40.243Z,2.97
2023-04-23T02:20:10.679Z,3.00
2023-04-23T02:22:41.942Z,2.43
2023-04-23T02:25:09.532Z,2.60
2023-04-23T02:27:36.836Z,2.90
2023-04-23T02:30:04.450Z,2.33
2023-04-23T02:32:31.396Z,3.10
2023-04-23T02:34:59.693Z,2.40
2023-04-23T02:37:27.031Z,2.33
2023-04-23T02:39:54.231Z,2.83
2023-04-23T02:42:21.028Z,2.60
2023-04-23T02:44:47.901Z,2.60
2023-04-23T02:47:14.654Z,2.93
2023-04-23T02:49:41.393Z,2.87
2023-04-23T02:52:08.445Z,2.77
2023-04-23T02:54:36.986Z,2.60
2023-04-23T02:57:04.801Z,2.60
2023-04-23T02:59:31.607Z,2.90
2023-04-23T03:01:58.416Z,3.23
2023-04-23T03:04:25.187Z,3.27
2023-04-23T03:06:51.880Z,2.93
2023-04-23T03:09:18.709Z,3.10
2023-04-23T03:11:45.524Z,2.57
2023-04-23T03:14:12.231Z,2.27
2023-04-23T03:16:38.929Z,2.73
2023-04-23T03:19:05.806Z,2.77
2023-04-23T03:21:32.596Z,3.17
2023-04-23T03:23:59.316Z,2.57
2023-04-23T03:26:26.114Z,2.60
2023-04-23T03:28:53.817Z,2.90
2023-04-23T03:31:20.877Z,2.93
2023-04-23T03:33:47.697Z,2.83
2023-04-23T03:36:15.593Z,2.87
2023-04-23T03:38:42.423Z,3.07
2023-04-23T03:41:09.081Z,2.50
2023-04-23T03:43:35.898Z,2.93
2023-04-23T03:46:02.667Z,2.80
2023-04-23T03:48:29.424Z,2.80
2023-04-23T03:50:56.173Z,2.60
2023-04-23T03:53:22.925Z,2.40
2023-04-23T03:55:49.683Z,2.90
2023-04-23T03:58:17.331Z,2.70
2023-04-23T04:00:44.163Z,2.63
2023-04-23T04:03:11.057Z,2.60
2023-04-23T04:05:37.810Z,2.70
2023-04-23T04:08:05.149Z,2.43
2023-04-23T04:10:31.903Z,2.37
2023-04-23T04:12:58.673Z,2.67
2023-04-23T04:15:25.641Z,2.60
2023-04-23T04:17:52.395Z,2.33
2023-04-23T04:20:19.507Z,2.23
2023-04-23T04:22:46.810Z,2.07
2023-04-23T04:25:14.205Z,2.67
2023-04-23T04:27:41.566Z,2.80
2023-04-23T04:30:09.542Z,2.40
2023-04-23T04:32:38.826Z,2.60
2023-04-23T04:35:06.771Z,1.97
2023-04-23T04:37:33.696Z,2.10
2023-04-23T04:40:01.471Z,1.60
2023-04-23T04:42:28.250Z,2.00
2023-04-23T04:44:54.932Z,1.90
2023-04-23T04:47:21.771Z,1.80
2023-04-23T04:49:48.857Z,1.73
2023-04-23T04:52:15.714Z,2.40
2023-04-23T04:54:42.811Z,2.13
2023-04-23T04:57:09.743Z,1.90
2023-04-23T04:59:36.850Z,1.97
2023-04-23T05:02:03.766Z,2.60
2023-04-23T05:04:30.793Z,2.10
2023-04-23T05:06:57.519Z,2.30
2023-04-23T05:09:25.280Z,2.10
2023-04-23T05:11:52.127Z,2.23
2023-04-23T05:14:18.789Z,2.40
2023-04-23T05:16:45.640Z,1.80
2023-04-23T05:19:12.489Z,2.13
2023-04-23T05:21:39.632Z,2.37
2023-04-23T05:24:06.421Z,2.40
2023-04-23T05:26:33.200Z,2.60
2023-04-23T05:29:00.000Z,2.80
2023-04-23T05:31:29.238Z,2.47
2023-04-23T05:33:56.266Z,1.93
2023-04-23T05:36:22.979Z,2.27
2023-04-23T05:38:49.756Z,2.17
2023-04-23T05:41:16.567Z,2.00
2023-04-23T05:43:43.460Z,2.27
2023-04-23T05:46:10.252Z,2.13
2023-04-23T05:48:37.030Z,2.23
2023-04-23T05:51:03.918Z,2.60
2023-04-23T05:53:30.619Z,2.20
2023-04-23T05:55:57.356Z,1.83
2023-04-23T05:58:24.059Z,2.30
2023-04-23T06:00:52.913Z,2.10
2023-04-23T06:03:20.136Z,2.17
2023-04-23T06:05:47.238Z,1.87
2023-04-23T06:08:14.004Z,2.30
2023-04-23T06:10:40.831Z,2.23
2023-04-23T06:13:07.788Z,1.93
2023-04-23T06:15:34.558Z,1.80
2023-04-23T06:18:01.378Z,1.70
2023-04-23T06:20:28.146Z,2.13
2023-04-23T06:22:54.900Z,1.70
2023-04-23T06:25:21.608Z,1.70
2023-04-23T06:27:48.299Z,1.80
2023-04-23T06:30:15.077Z,1.57
2023-04-23T06:32:41.838Z,1.77
2023-04-23T06:35:09.229Z,1.80
2023-04-23T06:37:36.183Z,1.60
2023-04-23T06:40:03.085Z,1.80
2023-04-23T06:42:29.832Z,1.50
2023-04-23T06:44:59.242Z,1.53
2023-04-23T06:47:26.163Z,1.57
2023-04-23T06:49:52.944Z,1.60
2023-04-23T06:52:19.655Z,1.60
2023-04-23T06:54:46.456Z,1.20
2023-04-23T06:57:13.227Z,1.40
2023-04-23T06:59:39.932Z,1.70
2023-04-23T07:02:07.300Z,1.87
2023-04-23T07:04:34.140Z,1.40
2023-04-23T07:07:00.825Z,1.33
2023-04-23T07:09:28.694Z,1.20
2023-04-23T07:11:55.673Z,1.50
2023-04-23T07:14:22.517Z,1.20
2023-04-23T07:16:49.198Z,1.50
2023-04-23T07:19:16.075Z,1.30
2023-04-23T07:21:42.852Z,1.20
2023-04-23T07:24:09.686Z,1.00
2023-04-23T07:26:36.848Z,1.10
2023-04-23T07:29:06.706Z,1.50
2023-04-23T07:31:34.159Z,1.13
2023-04-23T07:34:01.419Z,1.20
2023-04-23T07:36:28.500Z,1.03
2023-04-23T07:38:55.380Z,1.30
2023-04-23T07:41:22.241Z,1.33
2023-04-23T07:43:49.101Z,1.10
2023-04-23T07:46:16.051Z,1.37
2023-04-23T07:48:42.915Z,1.83
2023-04-23T07:51:09.816Z,1.37
2023-04-23T07:53:36.583Z,1.30
2023-04-23T07:56:03.349Z,1.70
2023-04-23T07:58:30.179Z,1.20
2023-04-23T08:00:57.157Z,1.20
2023-04-23T08:03:24.374Z,1.40
2023-04-23T08:05:51.259Z,1.70
2023-04-23T08:08:18.077Z,1.30
2023-04-23T08:10:45.877Z,1.30
2023-04-23T08:13:12.715Z,1.30
2023-04-23T08:15:39.696Z,1.40
2023-04-23T08:18:06.721Z,1.60
2023-04-23T08:20:34.219Z,1.63
2023-04-23T08:23:01.047Z,1.50
2023-04-23T08:25:27.847Z,1.40
2023-04-23T08:27:54.536Z,1.70
2023-04-23T08:30:21.433Z,1.60
2023-04-23T08:32:51.525Z,1.70
2023-04-23T08:35:18.468Z,1.40
2023-04-23T08:37:45.628Z,1.50
2023-04-23T08:40:13.213Z,1.67
2023-04-23T08:42:49.605Z,1.53
2023-04-23T08:45:16.436Z,1.30
2023-04-23T08:47:43.725Z,1.23
2023-04-23T08:50:12.907Z,1.43
2023-04-23T08:52:44.969Z,1.33
2023-04-23T08:55:12.461Z,1.73
2023-04-23T08:57:40.696Z,2.10
2023-04-23T09:00:10.979Z,1.80
2023-04-23T09:02:41.381Z,1.60
2023-04-23T09:05:08.956Z,1.60
2023-04-23T09:07:36.944Z,1.40
2023-04-23T09:10:06.080Z,1.60
2023-04-23T09:12:37.410Z,1.30
2023-04-23T09:15:10.689Z,1.70
2023-04-23T09:17:46.048Z,1.57
2023-04-23T09:20:15.244Z,1.60
2023-04-23T09:22:47.326Z,1.50
2023-04-23T09:25:17.478Z,1.40
2023-04-23T09:27:45.244Z,1.60
2023-04-23T09:30:12.973Z,1.87
2023-04-23T09:32:42.070Z,1.57
2023-04-23T09:35:12.205Z,1.63
2023-04-23T09:37:42.854Z,1.30
2023-04-23T09:40:13.350Z,1.87
2023-04-23T09:42:40.141Z,1.50
2023-04-23T09:45:12.087Z,1.57
2023-04-23T09:47:40.258Z,1.60
2023-04-23T09:50:10.430Z,1.40
2023-04-23T09:52:41.190Z,1.30
2023-04-23T09:55:08.593Z,1.33
2023-04-23T09:57:41.989Z,1.50
2023-04-23T10:00:21.616Z,1.20
2023-04-23T10:02:50.555Z,1.50
2023-04-23T10:05:24.757Z,1.27
2023-04-23T10:07:57.087Z,1.20
2023-04-23T10:10:24.892Z,1.20
2023-04-23T10:12:57.316Z,1.43
2023-04-23T10:15:26.961Z,1.23
2023-04-23T10:17:55.701Z,1.30
2023-04-23T10:20:28.950Z,1.10
2023-04-23T10:22:57.512Z,1.27
2023-04-23T10:25:25.624Z,1.10
2023-04-23T10:27:55.120Z,1.13
2023-04-23T10:30:23.926Z,1.10
2023-04-23T10:32:52.868Z,1.60
2023-04-23T10:35:19.680Z,1.10
2023-04-23T10:37:48.160Z,1.47
2023-04-23T10:40:21.952Z,1.20
2023-04-23T10:42:49.648Z,1.20
2023-04-23T10:47:49.393Z,1.20
2023-04-23T10:50:19.833Z,1.17
2023-04-23T10:52:51.325Z,1.20
2023-04-23T10:55:23.584Z,1.43
2023-04-23T10:58:02.947Z,1.43
2023-04-23T11:00:48.542Z,1.20
2023-04-23T11:03:44.359Z,1.40
2023-04-23T11:06:19.845Z,1.20
2023-04-23T11:08:54.106Z,1.70
2023-04-23T11:11:39.954Z,1.30
2023-04-23T11:14:16.381Z,1.00
2023-04-23T11:16:43.354Z,1.40
2023-04-23T11:19:17.282Z,1.10
2023-04-23T11:22:21.661Z,1.10
2023-04-23T11:24:50.863Z,1.77
2023-04-23T11:27:19.715Z,1.10
2023-04-23T11:29:47.898Z,1.30
2023-04-23T11:32:17.129Z,1.70
2023-04-23T11:34:45.817Z,1.20
2023-04-23T11:37:17.062Z,1.23
2023-04-23T11:39:45.921Z,1.10
2023-04-23T11:42:14.440Z,1.00
2023-04-23T11:44:42.863Z,1.10
2023-04-23T11:47:11.405Z,1.23
2023-04-23T11:49:39.148Z,1.10
2023-04-23T11:52:06.012Z,1.10
2023-04-23T11:54:34.379Z,1.27
2023-04-23T11:57:03.081Z,1.37
2023-04-23T11:59:30.505Z,1.20
2023-04-23T12:01:59.614Z,1.10
2023-04-23T12:04:31.094Z,1.03
2023-04-23T12:06:59.138Z,1.10
2023-04-23T12:09:30.028Z,1.20
2023-04-23T12:11:58.674Z,1.10
2023-04-23T12:14:30.708Z,1.20
2023-04-23T12:16:58.793Z,1.43
2023-04-23T12:19:30.196Z,1.70
2023-04-23T12:21:58.275Z,2.40
2023-04-23T12:24:30.135Z,1.10
2023-04-23T12:27:00.962Z,1.30
2023-04-23T12:29:30.504Z,1.10
2023-04-23T12:31:59.837Z,1.00
2023-04-23T12:34:26.735Z,1.20
2023-04-23T12:36:56.863Z,0.90
2023-04-23T12:39:34.491Z,1.00
2023-04-23T12:42:02.914Z,1.10
2023-04-23T12:44:30.630Z,1.20
2023-04-23T12:47:03.580Z,1.20
2023-04-23T12:49:31.172Z,1.03
2023-04-23T12:52:02.634Z,1.00
2023-04-23T12:54:37.192Z,1.20
2023-04-23T12:57:05.757Z,1.10
2023-04-23T12:59:33.311Z,1.00
2023-04-23T13:02:02.458Z,1.10
2023-04-23T13:04:31.564Z,0.90
2023-04-23T13:06:58.401Z,1.07
2023-04-23T13:09:27.788Z,1.10
2023-04-23T13:11:55.396Z,1.30
2023-04-23T13:14:22.440Z,1.60
2023-04-23T13:16:50.724Z,1.00
2023-04-23T13:19:17.832Z,1.40
2023-04-23T13:21:45.192Z,2.53
2023-04-23T13:24:12.033Z,13.00
2023-04-23T13:26:38.945Z,2.60
2023-04-23T13:29:06.460Z,9.73
2023-04-23T13:31:33.420Z,1.80
2023-04-23T13:34:01.516Z,1.57
2023-04-23T13:36:28.474Z,1.10
2023-04-23T13:38:55.430Z,1.50
2023-04-23T13:41:22.238Z,1.17
2023-04-23T13:43:49.044Z,1.23
2023-04-23T13:46:16.821Z,1.03
2023-04-23T13:48:43.639Z,1.03
2023-04-23T13:51:21.819Z,1.03
2023-04-23T13:53:54.025Z,1.20
2023-04-23T13:56:20.894Z,1.30
2023-04-23T13:58:49.003Z,1.03
2023-04-23T14:01:16.088Z,1.40
2023-04-23T14:03:42.963Z,1.23
2023-04-23T14:06:09.732Z,1.13
2023-04-23T14:08:37.192Z,1.10
2023-04-23T14:11:04.513Z,1.23
2023-04-23T14:13:32.164Z,1.30
2023-04-23T14:16:00.734Z,0.90
2023-04-23T14:18:29.865Z,1.00
2023-04-23T14:20:56.763Z,1.20
2023-04-23T14:23:23.487Z,1.00
2023-04-23T14:26:04.597Z,1.10
2023-04-23T14:28:39.018Z,1.00
2023-04-23T14:31:07.000Z,1.20
2023-04-23T14:33:33.856Z,1.00
2023-04-23T14:36:00.674Z,1.30
2023-04-23T14:38:27.602Z,1.10
2023-04-23T14:40:55.160Z,1.10
2023-04-23T14:43:21.921Z,0.90
2023-04-23T14:45:48.806Z,0.80
2023-04-23T14:48:15.740Z,1.07
2023-04-23T14:50:42.435Z,0.87
2023-04-23T14:53:10.610Z,1.17
2023-04-23T14:55:38.771Z,1.30
2023-04-23T14:58:06.350Z,1.17
2023-04-23T15:00:33.918Z,1.20
2023-04-23T15:03:02.792Z,1.20
2023-04-23T15:05:29.815Z,1.77
2023-04-23T15:07:56.563Z,1.10
2023-04-23T15:10:23.792Z,1.57
2023-04-23T15:12:53.482Z,1.30
2023-04-23T15:15:36.965Z,1.20
2023-04-23T15:18:05.424Z,1.07
2023-04-23T15:20:32.350Z,1.20
2023-04-23T15:22:59.244Z,1.17
2023-04-23T15:25:26.031Z,1.40
2023-04-23T15:27:57.792Z,1.20
2023-04-23T15:30:26.214Z,1.03
2023-04-23T15:32:57.617Z,1.60
2023-04-23T15:35:25.838Z,1.80
2023-04-23T15:37:53.699Z,1.40
2023-04-23T15:40:20.533Z,1.30
2023-04-23T15:42:49.446Z,1.60
2023-04-23T15:45:16.983Z,1.53
2023-04-23T15:47:43.851Z,1.30
2023-04-23T15:50:11.692Z,1.63
2023-04-23T15:52:39.369Z,1.50
2023-04-23T15:55:06.809Z,1.10
2023-04-23T15:57:33.661Z,1.23
2023-04-23T16:00:01.379Z,1.20
2023-04-23T16:02:29.016Z,1.50
2023-04-23T16:04:56.220Z,1.80
2023-04-23T16:07:23.035Z,1.57
2023-04-23T16:09:49.863Z,1.70
2023-04-23T16:12:16.711Z,2.13
2023-04-23T16:14:43.741Z,2.00
2023-04-23T16:17:10.753Z,1.60
2023-04-23T16:19:37.836Z,2.40
2023-04-23T16:22:04.649Z,2.30
2023-04-23T16:24:31.548Z,2.10
2023-04-23T16:26:58.482Z,2.67
2023-04-23T16:29:25.371Z,2.37
2023-04-23T16:31:52.179Z,2.70
2023-04-23T16:34:18.913Z,1.97
2023-04-23T16:36:45.734Z,1.70
2023-04-23T16:39:12.542Z,2.93
2023-04-23T16:41:39.301Z,1.90
2023-04-23T16:44:06.233Z,1.63
2023-04-23T16:46:33.583Z,1.77
2023-04-23T16:49:00.437Z,1.30
2023-04-23T16:51:28.777Z,1.37
2023-04-23T16:53:57.043Z,1.93
2023-04-23T16:56:24.065Z,2.10
2023-04-23T16:58:50.974Z,1.70
2023-04-23T17:01:17.971Z,1.80
2023-04-23T17:03:45.910Z,1.97
2023-04-23T17:06:20.293Z,2.00
2023-04-23T17:08:47.424Z,1.60
2023-04-23T17:11:14.547Z,1.97
2023-04-23T17:13:43.694Z,2.10
2023-04-23T17:16:10.962Z,2.30
2023-04-23T17:18:37.819Z,2.40
2023-04-23T17:21:04.853Z,2.47
2023-04-23T17:23:31.814Z,2.80
2023-04-23T17:25:58.568Z,2.10
2023-04-23T17:28:25.638Z,2.13
2023-04-23T17:30:53.905Z,2.37
2023-04-23T17:33:21.377Z,2.80
2023-04-23T17:35:53.752Z,2.20
2023-04-23T17:38:20.921Z,2.23
2023-04-23T17:40:52.632Z,2.87
2023-04-23T17:43:20.815Z,2.70
2023-04-23T17:45:48.133Z,3.00
2023-04-23T17:48:15.691Z,2.87
2023-04-23T17:50:43.235Z,2.47
2023-04-23T17:53:12.658Z,3.23
2023-04-23T17:55:39.473Z,3.77
2023-04-23T17:58:06.639Z,5.20
2023-04-23T18:00:37.555Z,5.10
2023-04-23T18:03:05.176Z,6.03
2023-04-23T18:05:32.351Z,5.20
2023-04-23T18:07:59.639Z,4.97
2023-04-23T18:10:26.947Z,4.60
2023-04-23T18:12:54.093Z,4.63
2023-04-23T18:15:21.272Z,5.50
2023-04-23T18:17:48.427Z,5.77
2023-04-23T18:20:16.562Z,4.67
2023-04-23T18:22:44.354Z,4.97
2023-04-23T18:25:11.678Z,4.87
2023-04-23T18:27:39.220Z,6.00
2023-04-23T18:30:23.422Z,5.40
2023-04-23T18:33:02.809Z,5.70
2023-04-23T18:35:29.958Z,6.00
2023-04-23T18:38:11.834Z,5.60
2023-04-23T18:40:38.921Z,5.60
2023-04-23T18:43:06.318Z,5.07
2023-04-23T18:45:33.615Z,5.00
2023-04-23T18:48:21.397Z,5.03
2023-04-23T18:50:55.259Z,4.80
2023-04-23T18:53:22.520Z,4.50
2023-04-23T18:55:49.645Z,5.13
2023-04-23T18:58:16.776Z,6.90
2023-04-23T19:00:44.002Z,7.30
2023-04-23T19:03:25.713Z,12.57
2023-04-23T19:05:54.153Z,6.67
2023-04-23T19:08:22.869Z,12.20
2023-04-23T19:10:50.163Z,8.77
2023-04-23T19:13:19.066Z,9.87
2023-04-23T19:15:46.411Z,18.63
2023-04-23T19:18:13.842Z,15.57
2023-04-23T19:20:40.984Z,8.00
2023-04-23T19:23:09.387Z,13.07
2023-04-23T19:25:37.104Z,13.80
2023-04-23T19:28:04.783Z,7.70
2023-04-23T19:30:32.820Z,4.73
2023-04-23T19:33:00.419Z,4.13
2023-04-23T19:35:28.181Z,4.70
2023-04-23T19:37:55.380Z,3.63
2023-04-23T19:40:23.859Z,2.30
2023-04-23T19:42:51.232Z,2.37
2023-04-23T19:45:21.954Z,2.47
2023-04-23T19:47:49.309Z,1.93
2023-04-23T19:50:16.858Z,2.37
2023-04-23T19:52:44.062Z,1.57
2023-04-23T19:55:11.714Z,1.77
2023-04-23T19:57:38.906Z,1.83
2023-04-23T20:00:14.181Z,2.33
2023-04-23T20:02:41.873Z,1.80
2023-04-23T20:05:12.400Z,1.37
2023-04-23T20:07:39.943Z,1.60
2023-04-23T20:10:07.821Z,1.53
2023-04-23T20:12:35.286Z,1.77
2023-04-23T20:15:02.534Z,1.50
2023-04-23T20:17:33.003Z,1.67
2023-04-23T20:20:02.119Z,1.30
2023-04-23T20:22:33.168Z,1.20
2023-04-23T20:25:02.075Z,1.43
2023-04-23T20:27:35.499Z,1.30
2023-04-23T20:30:05.024Z,1.63
2023-04-23T20:32:31.973Z,1.53
2023-04-23T20:35:07.984Z,1.70
2023-04-23T20:37:34.954Z,1.63
2023-04-23T20:40:04.689Z,1.40
2023-04-23T20:42:32.092Z,1.17
2023-04-23T20:44:58.994Z,1.40
2023-04-23T20:47:27.942Z,1.00
2023-04-23T20:49:57.764Z,1.30
2023-04-23T20:52:32.044Z,1.37
2023-04-23T20:55:03.672Z,1.23
2023-04-23T20:57:32.909Z,1.30
2023-04-23T20:59:59.781Z,1.20
2023-04-23T21:02:27.062Z,1.20
2023-04-23T21:04:53.867Z,1.37
2023-04-23T21:07:20.645Z,1.47
2023-04-23T21:09:47.492Z,1.10
2023-04-23T21:12:14.749Z,1.10
2023-04-23T21:14:41.696Z,1.10
2023-04-23T21:17:09.496Z,1.60
2023-04-23T21:19:36.421Z,2.20
2023-04-23T21:22:03.578Z,1.50
2023-04-23T21:24:30.450Z,1.40
2023-04-23T21:26:57.310Z,2.03
2023-04-23T21:29:25.896Z,1.33
2023-04-23T21:31:53.135Z,1.17
2023-04-23T21:34:21.307Z,1.50
2023-04-23T21:36:49.805Z,1.90
2023-04-23T21:39:16.669Z,1.50
2023-04-23T21:41:44.825Z,2.17
2023-04-23T21:44:11.639Z,1.90
2023-04-23T21:46:38.684Z,1.50
2023-04-23T21:49:05.726Z,1.43
2023-04-23T21:51:36.770Z,1.10
2023-04-23T21:54:05.668Z,1.43
2023-04-23T21:56:33.127Z,1.40
2023-04-23T21:59:00.037Z,1.30
2023-04-23T22:01:26.876Z,1.23
2023-04-23T22:03:53.784Z,1.40
2023-04-23T22:06:21.264Z,1.50
2023-04-23T22:08:48.215Z,1.30
2023-04-23T22:11:15.087Z,1.10
2023-04-23T22:13:41.917Z,1.23
2023-04-23T22:16:24.442Z,1.00
2023-04-23T22:18:54.250Z,1.30
2023-04-23T22:21:21.206Z,1.30
2023-04-23T22:23:48.181Z,1.57
2023-04-23T22:26:15.042Z,1.50
2023-04-23T22:28:43.425Z,1.70
2023-04-23T22:31:10.604Z,1.30
2023-04-23T22:33:37.650Z,1.30
2023-04-23T22:36:05.328Z,1.37
2023-04-23T22:38:32.589Z,1.40
2023-04-23T22:40:59.732Z,1.27
2023-04-23T22:43:26.557Z,1.10
2023-04-23T22:45:53.503Z,1.30
2023-04-23T22:48:21.346Z,1.30
2023-04-23T22:50:50.946Z,1.30
2023-04-23T22:53:19.422Z,1.40
2023-04-23T22:55:46.956Z,1.60
2023-04-23T22:58:13.716Z,1.70
2023-04-23T23:00:40.648Z,1.60
2023-04-23T23:03:08.395Z,1.43
2023-04-23T23:05:35.463Z,1.37
2023-04-23T23:08:02.403Z,1.80
2023-04-23T23:10:29.682Z,1.47
2023-04-23T23:12:56.755Z,1.37
2023-04-23T23:15:23.550Z,1.30
2023-04-23T23:17:51.150Z,1.60
2023-04-23T23:20:18.304Z,1.23
2023-04-23T23:22:45.305Z,1.13
2023-04-23T23:25:12.110Z,1.37
2023-04-23T23:27:38.878Z,1.37
2023-04-23T23:30:07.605Z,1.40
2023-04-23T23:32:34.429Z,1.40
2023-04-23T23:35:01.418Z,1.30
2023-04-23T23:37:28.266Z,1.20
2023-04-23T23:39:55.595Z,1.60
2023-04-23T23:42:22.465Z,1.40
2023-04-23T23:44:49.252Z,1.60
2023-04-23T23:47:16.428Z,1.60
2023-04-23T23:49:43.548Z,1.10
2023-04-23T23:52:10.754Z,1.27
2023-04-23T23:54:37.468Z,1.10
2023-04-23T23:57:04.272Z,1.30
2023-04-23T23:59:31.093Z,1.10
